createdAt,value
2023-04-01T00:00:09.381Z,99.90
2023-04-01T00:02:38.053Z,99.90
2023-04-01T00:05:11.519Z,99.90
2023-04-01T00:07:43.857Z,99.90
2023-04-01T00:10:15.492Z,99.90
2023-04-01T00:12:44.529Z,99.90
2023-04-01T00:15:14.506Z,99.90
2023-04-01T00:17:43.013Z,99.90
2023-04-01T00:20:15.316Z,99.90
2023-04-01T00:22:43.896Z,99.90
2023-04-01T00:25:12.649Z,99.90
2023-04-01T00:27:41.241Z,99.90
2023-04-01T00:30:13.959Z,99.90
2023-04-01T00:32:42.536Z,99.90
2023-04-01T00:35:13.549Z,99.90
2023-04-01T00:37:42.024Z,99.90
2023-04-01T00:40:25.150Z,99.90
2023-04-01T00:42:53.654Z,99.90
2023-04-01T00:45:42.026Z,99.90
2023-04-01T00:48:16.934Z,99.90
2023-04-01T00:50:52.880Z,99.90
2023-04-01T00:53:23.535Z,99.90
2023-04-01T00:56:04.972Z,99.90
2023-04-01T00:58:40.572Z,99.90
2023-04-01T01:01:11.103Z,99.90
2023-04-01T01:03:39.739Z,99.90
2023-04-01T01:06:31.122Z,99.90
2023-04-01T01:09:21.894Z,99.90
2023-04-01T01:11:59.951Z,99.90
2023-04-01T01:14:43.695Z,99.10
2023-04-01T01:17:22.984Z,98.50
2023-04-01T01:20:33.045Z,97.30
2023-04-01T01:23:57.412Z,96.30
2023-04-01T01:26:56.486Z,93.90
2023-04-01T01:29:53.824Z,91.80
2023-04-01T01:32:51.292Z,90.30
2023-04-01T01:35:27.982Z,88.20
2023-04-01T01:38:02.082Z,87.10
2023-04-01T01:40:34.310Z,87.80
2023-04-01T01:43:12.243Z,88.20
2023-04-01T01:45:49.658Z,88.40
2023-04-01T01:48:20.903Z,87.20
2023-04-01T01:50:52.479Z,86.40
2023-04-01T01:53:21.003Z,86.00
2023-04-01T01:55:50.300Z,85.40
2023-04-01T01:58:29.459Z,84.90
2023-04-01T02:01:02.122Z,83.70
2023-04-01T02:03:36.721Z,85.10
2023-04-01T02:06:11.765Z,88.60
2023-04-01T02:08:45.950Z,91.00
2023-04-01T02:11:45.186Z,95.30
2023-04-01T02:14:23.962Z,98.40
2023-04-01T02:16:57.644Z,99.90
2023-04-01T02:19:36.420Z,99.90
2023-04-01T02:22:12.691Z,99.90
2023-04-01T02:24:44.217Z,99.90
2023-04-01T02:27:13.535Z,99.90
2023-04-01T02:29:42.203Z,99.90
2023-04-01T02:32:12.421Z,99.90
2023-04-01T02:34:41.647Z,99.60
2023-04-01T02:37:13.049Z,97.40
2023-04-01T02:39:43.720Z,98.30
2023-04-01T02:42:12.619Z,99.90
2023-04-01T02:44:41.145Z,99.90
2023-04-01T02:47:11.298Z,99.90
2023-04-01T02:49:39.791Z,99.90
2023-04-01T02:52:08.320Z,99.90
2023-04-01T02:54:38.268Z,98.80
2023-04-01T02:57:06.879Z,99.90
2023-04-01T02:59:35.705Z,99.90
2023-04-01T03:02:04.200Z,99.90
2023-04-01T03:04:32.637Z,99.90
2023-04-01T03:07:01.128Z,98.60
2023-04-01T03:09:30.585Z,98.30
2023-04-01T03:12:00.389Z,97.40
2023-04-01T03:15:19.216Z,99.90
2023-04-01T03:17:50.841Z,99.90
2023-04-01T03:20:20.395Z,99.90
2023-04-01T03:22:49.008Z,99.90
2023-04-01T03:25:18.673Z,99.90
2023-04-01T03:27:48.419Z,99.90
2023-04-01T03:30:17.032Z,99.90
2023-04-01T03:32:45.638Z,99.90
2023-04-01T03:35:14.189Z,99.90
2023-04-01T03:37:42.876Z,99.90
2023-04-01T03:40:12.943Z,99.90
2023-04-01T03:42:41.503Z,99.90
2023-04-01T03:45:13.005Z,99.90
2023-04-01T03:47:41.875Z,99.90
2023-04-01T03:50:11.643Z,99.90
2023-04-01T03:52:41.058Z,99.90
2023-04-01T03:55:10.194Z,99.90
2023-04-01T03:57:38.766Z,99.90
2023-04-01T04:00:10.771Z,99.90
2023-04-01T04:02:39.279Z,99.90
2023-04-01T04:05:09.039Z,99.90
2023-04-01T04:07:37.809Z,99.90
2023-04-01T04:10:07.895Z,99.90
2023-04-01T04:12:36.432Z,99.90
2023-04-01T04:15:05.588Z,99.90
2023-04-01T04:17:35.474Z,99.90
2023-04-01T04:20:04.853Z,99.90
2023-04-01T04:22:58.738Z,99.90
2023-04-01T04:25:33.234Z,99.90
2023-04-01T04:28:01.903Z,99.90
2023-04-01T04:30:30.407Z,99.90
2023-04-01T04:33:00.278Z,99.90
2023-04-01T04:35:28.995Z,99.90
2023-04-01T04:37:57.440Z,99.90
2023-04-01T04:40:25.920Z,99.90
2023-04-01T04:42:54.507Z,99.90
2023-04-01T04:45:23.050Z,99.90
2023-04-01T04:47:51.841Z,99.90
2023-04-01T04:50:21.766Z,99.90
2023-04-01T04:53:16.292Z,99.90
2023-04-01T04:55:49.210Z,99.90
2023-04-01T04:58:18.969Z,99.90
2023-04-01T05:00:48.480Z,99.90
2023-04-01T05:03:41.686Z,99.90
2023-04-01T05:06:15.275Z,99.90
2023-04-01T05:08:44.543Z,99.90
2023-04-01T05:11:17.207Z,99.90
2023-04-01T05:13:54.196Z,99.90
2023-04-01T05:16:23.388Z,99.90
2023-04-01T05:18:51.925Z,99.90
2023-04-01T05:21:21.741Z,99.90
2023-04-01T05:23:50.267Z,99.90
2023-04-01T05:26:18.670Z,99.90
2023-04-01T05:28:47.134Z,99.90
2023-04-01T05:31:15.733Z,99.90
2023-04-01T05:33:44.195Z,99.90
2023-04-01T05:36:16.102Z,99.90
2023-04-01T05:38:46.924Z,99.90
2023-04-01T05:41:16.286Z,99.90
2023-04-01T05:43:45.283Z,99.90
2023-04-01T05:46:13.838Z,99.90
2023-04-01T05:48:42.337Z,99.90
2023-04-01T05:51:15.906Z,99.90
2023-04-01T05:53:46.320Z,99.90
2023-04-01T05:56:15.068Z,99.90
2023-04-01T05:58:43.740Z,99.90
2023-04-01T06:01:16.207Z,99.90
2023-04-01T06:04:15.529Z,99.90
2023-04-01T06:06:44.636Z,99.90
2023-04-01T06:09:54.282Z,99.90
2023-04-01T06:12:43.193Z,99.90
2023-04-01T06:15:28.408Z,99.90
2023-04-01T06:18:41.981Z,99.90
2023-04-01T06:21:35.363Z,99.90
2023-04-01T06:24:26.885Z,99.90
2023-04-01T06:27:09.789Z,99.90
2023-04-01T06:29:55.200Z,99.90
2023-04-01T06:33:15.874Z,99.90
2023-04-01T06:36:17.129Z,99.90
2023-04-01T06:39:12.929Z,99.90
2023-04-01T06:42:35.133Z,99.90
2023-04-01T06:45:21.229Z,99.90
2023-04-01T06:48:12.993Z,99.90
2023-04-01T06:50:57.383Z,99.90
2023-04-01T06:53:37.867Z,99.90
2023-04-01T06:56:13.192Z,99.90
2023-04-01T06:58:51.553Z,99.90
2023-04-01T07:01:28.491Z,99.90
2023-04-01T07:04:03.082Z,99.90
2023-04-01T07:06:38.460Z,99.90
2023-04-01T07:09:14.185Z,99.90
2023-04-01T07:12:17.516Z,99.90
2023-04-01T07:14:50.987Z,99.90
2023-04-01T07:17:24.177Z,99.90
2023-04-01T07:20:00.656Z,99.90
2023-04-01T07:22:34.264Z,99.90
2023-04-01T07:25:13.193Z,99.90
2023-04-01T07:27:41.903Z,99.90
2023-04-01T07:30:18.671Z,99.90
2023-04-01T07:32:53.843Z,99.90
2023-04-01T07:35:32.756Z,99.90
2023-04-01T07:38:30.369Z,99.90
2023-04-01T07:41:12.615Z,99.90
2023-04-01T07:44:23.730Z,99.90
2023-04-01T07:47:08.323Z,99.90
2023-04-01T07:49:55.085Z,99.90
2023-04-01T07:52:38.080Z,99.90
2023-04-01T07:55:16.482Z,99.90
2023-04-01T07:57:58.200Z,99.90
2023-04-01T08:00:44.801Z,99.90
2023-04-01T08:03:33.803Z,99.90
2023-04-01T08:06:16.484Z,99.90
2023-04-01T08:09:12.899Z,99.90
2023-04-01T08:12:05.701Z,99.90
2023-04-01T08:14:49.703Z,99.90
2023-04-01T08:17:28.818Z,99.90
2023-04-01T08:20:18.564Z,99.90
2023-04-01T08:22:53.301Z,99.90
2023-04-01T08:25:27.189Z,99.90
2023-04-01T08:28:04.221Z,99.90
2023-04-01T08:30:45.020Z,99.90
2023-04-01T08:33:40.302Z,99.90
2023-04-01T08:36:15.047Z,99.90
2023-04-01T08:38:46.992Z,99.90
2023-04-01T08:41:50.287Z,99.90
2023-04-01T08:45:08.822Z,99.90
2023-04-01T08:47:54.928Z,99.90
2023-04-01T08:50:45.783Z,99.90
2023-04-01T08:53:27.142Z,99.90
2023-04-01T08:56:14.523Z,99.90
2023-04-01T08:59:11.162Z,99.90
2023-04-01T09:02:06.333Z,98.20
2023-04-01T09:05:03.244Z,98.40
2023-04-01T09:08:02.861Z,97.00
2023-04-01T09:11:15.358Z,98.80
2023-04-01T09:14:25.471Z,99.90
2023-04-01T09:17:43.432Z,99.90
2023-04-01T09:20:57.658Z,99.90
2023-04-01T09:24:42.174Z,99.90
2023-04-01T09:27:28.501Z,99.90
2023-04-01T09:30:48.605Z,99.90
2023-04-01T09:34:12.361Z,99.90
2023-04-01T09:36:48.050Z,99.90
2023-04-01T09:39:38.329Z,99.90
2023-04-01T09:43:04.559Z,99.90
2023-04-01T09:45:50.440Z,99.90
2023-04-01T09:48:41.042Z,99.90
2023-04-01T09:51:36.956Z,99.90
2023-04-01T09:54:22.947Z,99.90
2023-04-01T09:57:42.142Z,99.90
2023-04-01T10:00:57.758Z,99.90
2023-04-01T10:04:27.409Z,98.50
2023-04-01T10:07:53.923Z,89.00
2023-04-01T10:11:32.614Z,83.30
2023-04-01T10:14:39.029Z,73.90
2023-04-01T10:17:40.681Z,71.70
2023-04-01T10:20:48.179Z,71.50
2023-04-01T10:23:34.639Z,71.80
2023-04-01T10:27:09.329Z,71.70
2023-04-01T10:30:28.412Z,70.30
2023-04-01T10:33:56.286Z,71.10
2023-04-01T10:36:56.995Z,69.20
2023-04-01T10:40:33.884Z,68.50
2023-04-01T10:43:44.598Z,69.30
2023-04-01T10:47:03.881Z,67.30
2023-04-01T10:50:00.777Z,66.80
2023-04-01T10:53:13.520Z,67.40
2023-04-01T10:56:36.372Z,66.50
2023-04-01T11:00:14.056Z,67.10
2023-04-01T11:03:41.675Z,66.30
2023-04-01T11:07:13.043Z,66.50
2023-04-01T11:10:45.748Z,66.10
2023-04-01T11:13:52.389Z,65.00
2023-04-01T11:17:08.097Z,65.10
2023-04-01T11:20:26.644Z,66.40
2023-04-01T11:23:20.664Z,66.60
2023-04-01T11:26:27.244Z,71.60
2023-04-01T11:29:44.374Z,85.00
2023-04-01T11:32:37.428Z,99.90
2023-04-01T11:35:47.736Z,99.90
2023-04-01T11:38:48.086Z,99.90
2023-04-01T11:41:32.740Z,99.90
2023-04-01T11:44:20.086Z,99.90
2023-04-01T11:47:21.601Z,99.90
2023-04-01T11:50:14.537Z,99.90
2023-04-01T11:53:28.937Z,99.90
2023-04-01T11:56:14.171Z,99.90
2023-04-01T11:59:45.260Z,99.90
2023-04-01T12:02:26.298Z,99.90
2023-04-01T12:05:24.325Z,99.90
2023-04-01T12:08:13.037Z,99.90
2023-04-01T12:10:55.871Z,99.90
2023-04-01T12:13:45.443Z,99.90
2023-04-01T12:16:50.878Z,99.90
2023-04-01T12:19:31.707Z,99.90
2023-04-01T12:22:28.516Z,99.90
2023-04-01T12:25:16.585Z,99.90
2023-04-01T12:28:01.767Z,99.90
2023-04-01T12:30:59.114Z,99.90
2023-04-01T12:34:03.058Z,99.90
2023-04-01T12:37:01.761Z,99.90
2023-04-01T12:39:53.393Z,99.90
2023-04-01T12:42:46.622Z,99.90
2023-04-01T12:45:49.594Z,99.90
2023-04-01T12:48:50.352Z,99.90
2023-04-01T12:52:09.481Z,99.90
2023-04-01T12:55:37.321Z,99.90
2023-04-01T12:59:01.110Z,99.90
2023-04-01T13:01:54.415Z,99.90
2023-04-01T13:05:03.578Z,99.90
2023-04-01T13:08:18.190Z,99.90
2023-04-01T13:11:10.816Z,99.90
2023-04-01T13:14:29.156Z,99.90
2023-04-01T13:17:24.058Z,99.90
2023-04-01T13:20:05.789Z,99.90
2023-04-01T13:22:53.964Z,99.90
2023-04-01T13:25:36.374Z,99.90
2023-04-01T13:28:17.270Z,99.90
2023-04-01T13:30:59.756Z,99.90
2023-04-01T13:34:07.791Z,99.90
2023-04-01T13:36:53.312Z,99.90
2023-04-01T13:39:36.403Z,99.90
2023-04-01T13:42:26.418Z,99.90
2023-04-01T13:45:04.672Z,99.90
2023-04-01T13:48:09.942Z,99.90
2023-04-01T13:51:19.846Z,99.90
2023-04-01T13:54:19.369Z,99.90
2023-04-01T13:57:07.439Z,99.90
2023-04-01T14:00:09.863Z,99.90
2023-04-01T14:02:59.212Z,99.90
2023-04-01T14:06:02.460Z,99.90
2023-04-01T14:08:51.105Z,99.90
2023-04-01T14:11:29.566Z,99.90
2023-04-01T14:14:12.228Z,99.90
2023-04-01T14:17:08.960Z,99.90
2023-04-01T14:20:04.450Z,99.90
2023-04-01T14:23:19.792Z,99.90
2023-04-01T14:26:35.274Z,99.90
2023-04-01T14:29:24.208Z,99.90
2023-04-01T14:32:08.808Z,99.90
2023-04-01T14:34:56.921Z,99.90
2023-04-01T14:38:08.652Z,99.90
2023-04-01T14:40:57.087Z,99.90
2023-04-01T14:44:00.942Z,99.90
2023-04-01T14:47:14.036Z,99.90
2023-04-01T14:49:48.259Z,99.90
2023-04-01T14:52:27.198Z,99.90
2023-04-01T14:54:59.721Z,99.90
2023-04-01T14:57:32.046Z,99.90
2023-04-01T15:00:11.932Z,99.90
2023-04-01T15:03:00.952Z,99.90
2023-04-01T15:05:41.176Z,99.90
2023-04-01T15:08:20.264Z,99.90
2023-04-01T15:11:17.597Z,99.90
2023-04-01T15:14:27.625Z,99.90
2023-04-01T15:17:24.926Z,99.90
2023-04-01T15:20:34.945Z,99.90
2023-04-01T15:23:21.857Z,99.90
2023-04-01T15:26:24.672Z,99.90
2023-04-01T15:29:10.520Z,99.90
2023-04-01T15:32:02.133Z,99.90
2023-04-01T15:34:42.563Z,99.90
2023-04-01T15:37:25.085Z,99.90
2023-04-01T16:08:14.633Z,99.90
2023-04-01T16:11:10.968Z,99.90
2023-04-01T16:13:56.672Z,99.90
2023-04-01T16:16:49.326Z,99.90
2023-04-01T16:19:49.961Z,99.90
2023-04-01T16:23:01.208Z,99.90
2023-04-01T16:25:39.517Z,99.90
2023-04-01T16:28:26.726Z,99.90
2023-04-01T16:31:05.704Z,99.90
2023-04-01T16:33:49.924Z,99.90
2023-04-01T16:36:30.538Z,99.90
2023-04-01T16:39:37.345Z,99.90
2023-04-01T16:42:45.489Z,99.90
2023-04-01T16:45:34.969Z,99.90
2023-04-01T16:48:14.492Z,99.90
2023-04-01T16:50:54.479Z,99.90
2023-04-01T16:53:42.619Z,99.90
2023-04-01T16:56:22.594Z,99.90
2023-04-01T16:59:10.956Z,99.90
2023-04-01T17:01:50.092Z,99.90
2023-04-01T17:04:34.218Z,99.90
2023-04-01T17:07:20.308Z,99.90
2023-04-01T17:10:08.103Z,99.90
2023-04-01T17:12:50.022Z,99.90
2023-04-01T17:15:31.910Z,99.90
2023-04-01T17:18:11.281Z,99.90
2023-04-01T17:20:50.724Z,99.90
2023-04-01T17:23:32.111Z,99.90
2023-04-01T17:26:22.883Z,99.90
2023-04-01T17:29:00.598Z,99.90
2023-04-01T17:32:03.857Z,99.90
2023-04-01T17:35:05.525Z,99.90
2023-04-01T17:37:52.469Z,99.90
2023-04-01T17:40:53.665Z,99.90
2023-04-01T17:43:38.840Z,99.90
2023-04-01T17:46:33.635Z,99.90
2023-04-01T17:49:21.306Z,99.90
2023-04-01T17:52:02.678Z,99.90
2023-04-01T17:54:41.177Z,99.90
2023-04-01T17:57:34.632Z,99.90
2023-04-01T18:00:22.325Z,99.90
2023-04-01T18:04:12.840Z,99.90
2023-04-01T18:07:57.155Z,99.90
2023-04-01T18:10:33.523Z,99.90
2023-04-01T18:13:54.567Z,99.90
2023-04-01T18:16:53.952Z,99.90
2023-04-01T18:19:41.866Z,99.90
2023-04-01T18:22:23.132Z,99.90
2023-04-01T18:25:06.930Z,99.90
2023-04-01T18:27:42.649Z,99.90
2023-04-01T18:30:21.382Z,99.90
2023-04-01T18:32:59.276Z,99.90
2023-04-01T18:35:50.410Z,99.90
2023-04-01T18:38:27.730Z,99.90
2023-04-01T18:41:16.433Z,99.90
2023-04-01T18:44:04.084Z,99.90
2023-04-01T18:46:41.807Z,99.90
2023-04-01T18:49:23.379Z,99.90
2023-04-01T18:51:58.937Z,99.90
2023-04-01T18:54:33.857Z,99.90
2023-04-01T18:57:10.185Z,99.90
2023-04-01T18:59:44.604Z,99.90
2023-04-01T19:02:33.397Z,99.90
2023-04-01T19:05:14.713Z,99.90
2023-04-01T19:07:50.492Z,99.90
2023-04-01T19:10:29.653Z,99.90
2023-04-01T19:13:19.030Z,99.90
2023-04-01T19:16:01.276Z,99.90
2023-04-01T19:18:53.747Z,99.90
2023-04-01T19:21:29.907Z,99.90
2023-04-01T19:24:28.808Z,99.90
2023-04-01T19:27:09.215Z,99.90
2023-04-01T19:29:58.647Z,99.90
2023-04-01T19:32:43.621Z,99.90
2023-04-01T19:35:26.419Z,99.90
2023-04-01T19:38:04.156Z,99.90
2023-04-01T19:40:49.850Z,99.90
2023-04-01T19:43:41.554Z,99.90
2023-04-01T19:46:22.038Z,99.90
2023-04-01T19:49:17.318Z,99.90
2023-04-01T19:51:54.962Z,99.90
2023-04-01T19:54:37.833Z,99.90
2023-04-01T19:57:25.664Z,99.90
2023-04-01T20:00:04.312Z,99.90
2023-04-01T20:03:04.147Z,99.90
2023-04-01T20:05:53.066Z,99.90
2023-04-01T20:08:36.069Z,99.90
2023-04-01T20:11:20.262Z,99.90
2023-04-01T20:14:29.215Z,99.90
2023-04-01T20:17:16.296Z,99.90
2023-04-01T20:19:51.125Z,99.90
2023-04-01T20:22:33.963Z,99.90
2023-04-01T20:25:15.764Z,99.90
2023-04-01T20:27:53.004Z,99.90
2023-04-01T20:30:59.928Z,99.90
2023-04-01T20:34:03.725Z,99.90
2023-04-01T20:36:40.619Z,99.90
2023-04-01T20:40:12.331Z,99.90
2023-04-01T20:43:09.838Z,99.90
2023-04-01T20:45:52.011Z,99.90
2023-04-01T20:48:54.972Z,99.90
2023-04-01T20:51:28.102Z,99.90
2023-04-01T20:54:17.369Z,99.90
2023-04-01T20:56:58.370Z,99.90
2023-04-01T21:00:05.716Z,99.90
2023-04-01T21:02:59.872Z,99.90
2023-04-01T21:05:57.910Z,99.90
2023-04-01T21:08:46.135Z,99.90
2023-04-01T21:11:28.450Z,99.90
2023-04-01T21:14:31.011Z,99.90
2023-04-01T21:17:15.462Z,99.90
2023-04-01T21:20:21.129Z,99.90
2023-04-01T21:23:12.212Z,99.90
2023-04-01T21:26:03.378Z,99.90
2023-04-01T21:28:42.648Z,99.90
2023-04-01T21:31:44.285Z,99.90
2023-04-01T21:34:45.140Z,99.90
2023-04-01T21:37:48.963Z,99.90
2023-04-01T21:40:46.868Z,99.90
2023-04-01T21:43:51.049Z,99.90
2023-04-01T21:46:53.426Z,99.90
2023-04-01T21:50:08.899Z,99.90
2023-04-01T21:53:17.351Z,99.90
2023-04-01T21:56:48.030Z,99.90
2023-04-01T22:00:17.386Z,99.90
2023-04-01T22:03:28.581Z,99.90
2023-04-01T22:06:20.954Z,99.90
2023-04-01T22:09:05.293Z,99.90
2023-04-01T22:11:50.463Z,99.90
2023-04-01T22:14:32.623Z,99.90
2023-04-01T22:17:05.409Z,99.90
2023-04-01T22:19:47.591Z,99.90
2023-04-01T22:22:24.338Z,99.90
2023-04-01T22:25:09.505Z,99.90
2023-04-01T22:27:48.446Z,99.90
2023-04-01T22:30:43.369Z,99.90
2023-04-01T22:33:22.738Z,99.90
2023-04-01T22:36:24.724Z,99.90
2023-04-01T22:39:50.735Z,99.90
2023-04-01T22:43:07.345Z,99.90
2023-04-01T22:46:34.770Z,99.90
2023-04-01T22:49:17.469Z,99.90
2023-04-01T22:51:52.636Z,99.90
2023-04-01T22:54:31.530Z,99.90
2023-04-01T22:57:06.500Z,99.90
2023-04-01T22:59:44.268Z,99.90
2023-04-01T23:02:19.367Z,99.90
2023-04-01T23:04:56.298Z,99.90
2023-04-01T23:07:47.759Z,99.90
2023-04-01T23:10:25.886Z,99.90
2023-04-01T23:12:57.648Z,99.90
2023-04-01T23:15:29.779Z,99.90
2023-04-01T23:18:23.012Z,99.90
2023-04-01T23:21:14.540Z,99.90
2023-04-01T23:23:57.684Z,99.90
2023-04-01T23:26:36.370Z,99.90
2023-04-01T23:29:07.082Z,99.90
2023-04-01T23:31:40.787Z,99.90
2023-04-01T23:34:30.044Z,99.90
2023-04-01T23:37:04.930Z,99.90
2023-04-01T23:39:37.567Z,99.90
2023-04-01T23:42:09.736Z,99.90
2023-04-01T23:44:39.339Z,99.90
2023-04-01T23:47:17.970Z,99.90
2023-04-01T23:49:50.453Z,99.90
2023-04-01T23:52:25.390Z,99.90
2023-04-01T23:54:58.589Z,99.90
2023-04-01T23:57:33.482Z,99.90
